createdAt,value
2022-09-13T00:01:32.899Z,86
2022-09-13T00:04:58.031Z,85
2022-09-13T00:08:23.262Z,85
2022-09-13T00:11:48.489Z,86
2022-09-13T00:15:13.681Z,86
2022-09-13T00:18:38.862Z,86
2022-09-13T00:22:04.057Z,86
2022-09-13T00:25:29.271Z,85
2022-09-13T00:28:54.485Z,86
2022-09-13T00:32:19.654Z,85
2022-09-13T00:35:44.851Z,85
2022-09-13T00:39:10.029Z,86
2022-09-13T00:42:35.210Z,86
2022-09-13T00:46:00.540Z,86
2022-09-13T00:49:25.596Z,86
2022-09-13T00:52:50.762Z,87
2022-09-13T00:56:15.975Z,87
2022-09-13T00:59:41.176Z,87
2022-09-13T01:03:06.460Z,87
2022-09-13T01:06:31.621Z,87
2022-09-13T01:09:56.808Z,87
2022-09-13T01:13:21.976Z,87
2022-09-13T01:16:47.952Z,87
2022-09-13T01:20:12.501Z,87
2022-09-13T01:23:37.687Z,87
2022-09-13T01:27:02.829Z,87
2022-09-13T01:30:28.040Z,86
2022-09-13T01:33:53.283Z,87
2022-09-13T01:37:18.573Z,87
2022-09-13T01:40:43.659Z,86
2022-09-13T01:44:08.889Z,87
2022-09-13T01:47:34.059Z,87
2022-09-13T01:50:59.250Z,86
2022-09-13T01:54:24.575Z,87
2022-09-13T01:57:49.646Z,87
2022-09-13T02:01:14.906Z,86
2022-09-13T02:04:40.043Z,87
2022-09-13T02:08:05.233Z,87
2022-09-13T02:11:30.493Z,87
2022-09-13T02:14:55.666Z,86
2022-09-13T02:18:20.867Z,86
2022-09-13T02:21:46.110Z,86
2022-09-13T02:25:11.300Z,86
2022-09-13T02:28:36.562Z,86
2022-09-13T02:32:01.820Z,87
2022-09-13T02:35:27.001Z,86
2022-09-13T02:38:52.241Z,86
2022-09-13T02:42:17.449Z,87
2022-09-13T02:45:42.859Z,87
2022-09-13T02:49:07.897Z,86
2022-09-13T02:52:33.078Z,87
2022-09-13T02:55:58.261Z,87
2022-09-13T02:59:23.539Z,87
2022-09-13T03:02:48.780Z,87
2022-09-13T03:06:13.956Z,87
2022-09-13T03:09:39.193Z,87
2022-09-13T03:13:04.343Z,87
2022-09-13T03:16:29.583Z,87
2022-09-13T03:19:54.764Z,87
2022-09-13T03:23:19.962Z,87
2022-09-13T03:26:45.193Z,87
2022-09-13T03:30:10.376Z,87
2022-09-13T03:33:35.600Z,88
2022-09-13T03:37:00.893Z,89
2022-09-13T03:40:26.114Z,89
2022-09-13T03:43:51.379Z,89
2022-09-13T03:47:17.180Z,88
2022-09-13T03:50:42.420Z,88
2022-09-13T03:54:08.691Z,87
2022-09-13T03:57:33.830Z,87
2022-09-13T04:00:59.229Z,87
2022-09-13T04:04:24.290Z,87
2022-09-13T04:07:49.487Z,87
2022-09-13T04:11:14.757Z,87
2022-09-13T04:14:40.001Z,87
2022-09-13T04:18:05.198Z,87
2022-09-13T04:21:30.436Z,87
2022-09-13T04:24:58.100Z,87
2022-09-13T04:28:20.903Z,87
2022-09-13T04:31:46.037Z,87
2022-09-13T04:35:11.254Z,87
2022-09-13T04:38:36.478Z,87
2022-09-13T04:42:01.714Z,87
2022-09-13T04:45:27.058Z,87
2022-09-13T04:48:52.178Z,87
2022-09-13T04:52:17.378Z,87
2022-09-13T04:55:42.600Z,87
2022-09-13T04:59:07.842Z,87
2022-09-13T05:02:33.271Z,87
2022-09-13T05:05:58.296Z,87
2022-09-13T05:09:23.474Z,87
2022-09-13T05:12:48.711Z,87
2022-09-13T05:16:13.938Z,87
2022-09-13T05:19:39.208Z,87
2022-09-13T05:23:04.441Z,86
2022-09-13T05:26:29.665Z,87
2022-09-13T05:29:54.924Z,87
2022-09-13T05:33:20.143Z,87
2022-09-13T05:36:45.377Z,87
2022-09-13T05:40:12.185Z,87
2022-09-13T05:43:35.818Z,86
2022-09-13T05:47:01.059Z,86
2022-09-13T05:50:54.138Z,86
2022-09-13T05:53:51.506Z,86
2022-09-13T05:57:16.680Z,86
2022-09-13T06:00:41.972Z,85
2022-09-13T06:04:07.204Z,86
2022-09-13T06:07:32.417Z,86
2022-09-13T06:10:57.637Z,86
2022-09-13T06:14:22.865Z,85
2022-09-13T06:17:48.152Z,85
2022-09-13T06:21:13.353Z,85
2022-09-13T06:24:38.532Z,85
2022-09-13T06:28:03.802Z,85
2022-09-13T06:31:29.006Z,85
2022-09-13T06:34:54.097Z,85
2022-09-13T06:38:19.283Z,84
2022-09-13T06:41:44.461Z,84
2022-09-13T06:45:09.648Z,85
2022-09-13T06:48:34.818Z,85
2022-09-13T06:51:59.980Z,86
2022-09-13T06:55:25.250Z,85
2022-09-13T06:58:50.699Z,84
2022-09-13T07:02:15.913Z,84
2022-09-13T07:05:40.954Z,84
2022-09-13T07:09:06.151Z,83
2022-09-13T07:12:31.343Z,84
2022-09-13T07:15:56.578Z,84
2022-09-13T07:19:21.913Z,85
2022-09-13T07:22:46.957Z,85
2022-09-13T07:26:12.161Z,84
2022-09-13T07:29:37.383Z,83
2022-09-13T07:33:02.657Z,83
2022-09-13T07:36:27.875Z,83
2022-09-13T07:39:53.038Z,83
2022-09-13T07:43:18.191Z,83
2022-09-13T07:46:43.418Z,84
2022-09-13T07:50:08.647Z,84
2022-09-13T07:53:33.864Z,85
2022-09-13T07:56:59.029Z,86
2022-09-13T08:00:24.255Z,87
2022-09-13T08:03:49.613Z,88
2022-09-13T08:07:14.696Z,89
2022-09-13T08:10:40.020Z,89
2022-09-13T08:14:05.170Z,90
2022-09-13T08:17:30.383Z,91
2022-09-13T08:20:55.605Z,91
2022-09-13T08:24:20.825Z,91
2022-09-13T08:27:46.147Z,91
2022-09-13T08:31:11.350Z,91
2022-09-13T08:34:36.520Z,91
2022-09-13T08:38:01.714Z,91
2022-09-13T08:41:26.902Z,90
2022-09-13T08:44:52.183Z,90
2022-09-13T08:48:17.318Z,91
2022-09-13T08:51:42.515Z,90
2022-09-13T08:55:07.784Z,90
2022-09-13T08:58:33.047Z,90
2022-09-13T09:01:58.257Z,91
2022-09-13T09:05:23.390Z,91
2022-09-13T09:08:48.658Z,91
2022-09-13T09:12:13.836Z,91
2022-09-13T09:15:39.076Z,91
2022-09-13T09:19:04.271Z,90
2022-09-13T09:22:29.420Z,89
2022-09-13T09:25:54.598Z,88
2022-09-13T09:29:24.333Z,90
2022-09-13T09:32:45.019Z,89
2022-09-13T09:36:10.213Z,89
2022-09-13T09:39:35.437Z,89
2022-09-13T09:43:00.625Z,88
2022-09-13T09:46:25.923Z,87
2022-09-13T09:49:51.008Z,88
2022-09-13T09:53:16.565Z,88
2022-09-13T09:56:41.626Z,86
2022-09-13T10:00:06.850Z,86
2022-09-13T10:03:32.024Z,86
2022-09-13T10:06:57.266Z,87
2022-09-13T10:10:22.536Z,88
2022-09-13T10:13:47.777Z,86
2022-09-13T10:17:12.936Z,87
2022-09-13T10:20:38.104Z,85
2022-09-13T10:24:03.324Z,84
2022-09-13T10:27:28.512Z,84
2022-09-13T10:30:53.736Z,84
2022-09-13T10:34:18.859Z,84
2022-09-13T10:37:44.073Z,85
2022-09-13T10:41:09.291Z,84
2022-09-13T10:44:34.606Z,83
2022-09-13T10:47:59.738Z,82
2022-09-13T10:51:24.933Z,80
2022-09-13T10:54:50.188Z,79
2022-09-13T10:58:15.382Z,81
2022-09-13T11:01:40.818Z,81
2022-09-13T11:05:05.855Z,80
2022-09-13T11:08:31.089Z,77
2022-09-13T11:11:56.327Z,76
2022-09-13T11:15:21.563Z,76
2022-09-13T11:18:46.870Z,75
2022-09-13T11:22:12.061Z,74
2022-09-13T11:25:37.310Z,74
2022-09-13T11:29:02.505Z,72
2022-09-13T11:32:27.728Z,71
2022-09-13T11:35:52.966Z,72
2022-09-13T11:39:18.200Z,70
2022-09-13T11:42:43.416Z,73
2022-09-13T11:46:08.686Z,72
2022-09-13T11:49:33.819Z,71
2022-09-13T11:52:59.356Z,72
2022-09-13T11:56:24.553Z,73
2022-09-13T11:59:49.773Z,72
2022-09-13T12:03:15.120Z,71
2022-09-13T12:06:40.260Z,71
2022-09-13T12:10:05.551Z,72
2022-09-13T12:13:30.792Z,71
2022-09-13T12:16:56.044Z,73
2022-09-13T12:20:21.214Z,73
2022-09-13T12:23:46.532Z,73
2022-09-13T12:27:11.712Z,73
2022-09-13T12:30:36.905Z,73
2022-09-13T12:34:18.531Z,70
2022-09-13T12:37:50.302Z,72
2022-09-13T12:41:15.557Z,69
2022-09-13T12:44:40.747Z,69
2022-09-13T12:48:05.935Z,70
2022-09-13T12:51:31.172Z,68
2022-09-13T12:54:57.255Z,70
2022-09-13T12:58:22.499Z,68
2022-09-13T13:01:47.838Z,70
2022-09-13T13:05:12.915Z,70
2022-09-13T13:08:38.082Z,70
2022-09-13T13:12:03.326Z,69
2022-09-13T13:15:28.517Z,69
2022-09-13T13:18:53.841Z,69
2022-09-13T13:22:18.927Z,69
2022-09-13T13:25:44.112Z,68
2022-09-13T13:29:09.319Z,68
2022-09-13T13:32:34.549Z,68
2022-09-13T13:35:59.848Z,68
2022-09-13T13:39:24.965Z,70
2022-09-13T13:42:50.173Z,69
2022-09-13T13:46:15.368Z,69
2022-09-13T13:49:40.582Z,70
2022-09-13T13:53:05.814Z,69
2022-09-13T13:56:30.991Z,69
2022-09-13T13:59:56.255Z,68
2022-09-13T14:03:21.489Z,70
2022-09-13T14:06:49.325Z,71
2022-09-13T14:10:12.038Z,70
2022-09-13T14:13:37.140Z,71
2022-09-13T14:17:02.388Z,71
2022-09-13T14:20:27.511Z,71
2022-09-13T14:23:52.716Z,72
2022-09-13T14:27:17.945Z,72
2022-09-13T15:05:46.477Z,71
2022-09-13T15:09:11.572Z,72
2022-09-13T15:12:36.765Z,73
2022-09-13T15:16:02.056Z,73
2022-09-13T15:19:27.205Z,73
2022-09-13T15:22:52.453Z,72
2022-09-13T15:26:17.657Z,73
2022-09-13T15:29:42.894Z,74
2022-09-13T15:33:08.112Z,74
2022-09-13T15:36:33.363Z,75
2022-09-13T15:39:59.182Z,75
2022-09-13T15:43:23.994Z,76
2022-09-13T15:46:49.267Z,76
2022-09-13T15:50:14.389Z,77
2022-09-13T15:53:39.667Z,77
2022-09-13T15:57:05.030Z,76
2022-09-13T16:00:30.183Z,76
2022-09-13T16:03:55.305Z,77
2022-09-13T16:07:20.460Z,77
2022-09-13T16:10:45.657Z,77
2022-09-13T16:14:10.979Z,77
2022-09-13T16:17:36.120Z,77
2022-09-13T16:21:01.296Z,76
2022-09-13T16:24:26.465Z,76
2022-09-13T16:27:51.662Z,76
2022-09-13T16:31:16.910Z,76
2022-09-13T16:34:42.060Z,77
2022-09-13T16:38:07.220Z,77
2022-09-13T16:41:32.420Z,78
2022-09-13T16:44:57.609Z,78
2022-09-13T16:48:22.793Z,79
2022-09-13T16:51:47.979Z,79
2022-09-13T16:55:13.212Z,79
2022-09-13T16:58:38.412Z,79
2022-09-13T17:02:03.843Z,78
2022-09-13T17:05:28.954Z,78
2022-09-13T17:08:54.027Z,77
2022-09-13T17:12:19.188Z,76
2022-09-13T17:15:44.445Z,75
2022-09-13T17:19:09.603Z,76
2022-09-13T17:22:34.840Z,74
2022-09-13T17:25:59.984Z,75
2022-09-13T17:29:25.161Z,75
2022-09-13T17:32:50.340Z,74
2022-09-13T17:36:15.512Z,75
2022-09-13T17:39:40.845Z,74
2022-09-13T17:43:05.839Z,74
2022-09-13T17:46:31.147Z,75
2022-09-13T17:49:56.227Z,75
2022-09-13T17:53:21.378Z,76
2022-09-13T17:56:46.700Z,75
2022-09-13T18:00:11.752Z,75
2022-09-13T18:03:36.963Z,75
2022-09-13T18:07:02.129Z,76
2022-09-13T18:10:49.048Z,75
2022-09-13T18:13:52.583Z,76
2022-09-13T18:17:17.742Z,78
2022-09-13T18:20:43.000Z,77
2022-09-13T18:24:08.245Z,78
2022-09-13T18:27:33.465Z,77
2022-09-13T18:30:58.813Z,78
2022-09-13T18:34:27.506Z,78
2022-09-13T18:37:49.140Z,79
2022-09-13T18:41:14.338Z,79
2022-09-13T18:44:39.588Z,79
2022-09-13T18:48:04.819Z,79
2022-09-13T18:51:30.026Z,79
2022-09-13T18:54:55.220Z,79
2022-09-13T18:58:20.396Z,79
2022-09-13T19:01:45.730Z,79
2022-09-13T19:05:10.841Z,79
2022-09-13T19:08:36.012Z,79
2022-09-13T19:12:01.187Z,79
2022-09-13T19:15:26.402Z,79
2022-09-13T19:18:51.668Z,79
2022-09-13T19:22:16.867Z,79
2022-09-13T19:25:42.046Z,79
2022-09-13T19:29:07.260Z,79
2022-09-13T19:32:32.472Z,79
2022-09-13T19:35:57.665Z,79
2022-09-13T19:39:25.872Z,79
2022-09-13T19:42:48.037Z,79
2022-09-13T19:46:13.279Z,79
2022-09-13T19:49:38.494Z,79
2022-09-13T19:53:03.669Z,79
2022-09-13T19:56:28.954Z,79
2022-09-13T19:59:54.141Z,79
2022-09-13T20:03:19.316Z,79
2022-09-13T20:06:44.594Z,78
2022-09-13T20:10:09.799Z,79
2022-09-13T20:13:35.025Z,79
2022-09-13T20:17:00.188Z,79
2022-09-13T20:20:25.395Z,79
2022-09-13T20:23:50.598Z,79
2022-09-13T20:27:15.811Z,79
2022-09-13T20:30:41.808Z,79
2022-09-13T20:34:06.936Z,80
2022-09-13T20:37:32.145Z,80
2022-09-13T20:40:57.408Z,80
2022-09-13T20:44:22.490Z,80
2022-09-13T20:47:47.683Z,80
2022-09-13T20:51:12.829Z,80
2022-09-13T20:54:38.018Z,80
2022-09-13T20:58:03.226Z,81
2022-09-13T21:01:28.530Z,81
2022-09-13T21:04:53.728Z,81
2022-09-13T21:08:18.791Z,81
2022-09-13T21:11:43.973Z,81
2022-09-13T21:15:09.162Z,81
2022-09-13T21:18:34.346Z,81
2022-09-13T21:21:59.627Z,82
2022-09-13T21:25:24.701Z,83
2022-09-13T21:28:49.886Z,84
2022-09-13T21:32:15.066Z,86
2022-09-13T21:35:40.254Z,87
2022-09-13T21:39:05.484Z,88
2022-09-13T21:42:30.636Z,89
2022-09-13T21:45:55.864Z,89
2022-09-13T21:49:21.049Z,90
2022-09-13T21:52:46.264Z,90
2022-09-13T21:56:11.480Z,91
2022-09-13T21:59:36.696Z,91
2022-09-13T22:03:01.913Z,91
2022-09-13T22:06:30.267Z,91
2022-09-13T22:09:52.352Z,91
2022-09-13T22:13:17.602Z,91
2022-09-13T22:16:42.865Z,91
2022-09-13T22:20:08.039Z,91
2022-09-13T22:23:33.209Z,91
2022-09-13T22:26:58.410Z,92
2022-09-13T22:30:23.678Z,92
2022-09-13T22:33:48.940Z,92
2022-09-13T22:37:14.121Z,92
2022-09-13T22:40:39.325Z,91
2022-09-13T22:44:04.594Z,92
2022-09-13T22:47:29.842Z,92
2022-09-13T22:50:54.980Z,92
2022-09-13T22:54:20.222Z,91
2022-09-13T22:57:45.467Z,91
2022-09-13T23:01:10.779Z,91
2022-09-13T23:04:35.941Z,90
2022-09-13T23:08:01.126Z,90
2022-09-13T23:11:26.365Z,91
2022-09-13T23:14:51.555Z,91
2022-09-13T23:18:16.789Z,91
2022-09-13T23:21:41.974Z,91
2022-09-13T23:25:07.120Z,92
2022-09-13T23:28:32.362Z,92
2022-09-13T23:31:57.596Z,93
2022-09-13T23:35:22.760Z,93
2022-09-13T23:38:47.998Z,93
2022-09-13T23:42:13.220Z,93
2022-09-13T23:45:38.450Z,93
2022-09-13T23:49:03.584Z,93
2022-09-13T23:52:28.759Z,93
2022-09-13T23:55:53.993Z,93
2022-09-13T23:59:19.144Z,93
